Smithton, Missouri
Current Conditions -  °F | °C
As of 3:53 PM on Wednesday 22 Oct 2014 (Local Time) from KDMO Reporting Station
Clear Clear  
Wind Chill: 70°   Ceiling: Unl
Heat Index: 70°   Visibility: 10mi
Dew Point: 48°   Wind: 12mph
Humidity: 46%   Direction: 130°SE
Pressure: 30.16"   Gusts: NA
Location:  38.68°N, 93.09°W
Report Text: KDMO 222053Z AUTO 13010KT 10SM CLR 21/09 A3016 RMK AO2 SLP210 T02110089 56024
Loading
Personal Weather Stations






























Interactive Weather Map
Tropical Storm Tracking
New forecast layout! Learn more

10-Day Weather Forecast

Advertisements
Track Severe Weather on mobile